Time;durP1;ratioP1;P1;durP2;ratioP2;P2;SDS_P1;SDS_P2;PMS_P1;PMS_P2;Temp;Humidity;BMP_temperature;BMP_pressure;BME280_temperature;BME280_humidity;BME280_pressure;Samples;Min_cycle;Max_cycle;Signal;HPM_P1;HPM_P2
2022/10/08 00:02:15;;;;;;;;;19.00;16.75;;;;;16.28;42.70;101571.91;4973290;28;45245;-55
2022/10/08 00:04:40;;;;;;;;;17.00;14.00;;;;;16.28;42.26;101579.84;4961858;28;45523;-56
2022/10/08 00:07:06;;;;;;;;;18.25;18.25;;;;;16.26;42.39;101579.00;4961710;28;46396;-54
2022/10/08 00:09:31;;;;;;;;;17.50;16.00;;;;;16.23;42.87;101577.31;4961621;28;46926;-54
2022/10/08 00:11:57;;;;;;;;;17.75;16.50;;;;;16.20;42.40;101585.34;4976667;28;45372;-55
2022/10/08 00:14:22;;;;;;;;;19.50;18.00;;;;;16.18;42.34;101584.50;4961654;28;45469;-53
2022/10/08 00:16:48;;;;;;;;;14.50;11.75;;;;;16.17;42.40;101579.25;4960839;28;45506;-55
2022/10/08 00:19:14;;;;;;;;;16.50;16.50;;;;;16.12;42.65;101575.84;4961345;28;45175;-55
2022/10/08 00:21:42;;;;;;;;;19.50;16.50;;;;;16.12;42.57;101583.78;4961659;28;45176;-55
2022/10/08 00:24:15;;;;;;;;;16.75;15.00;;;;;16.09;42.88;101582.94;4961651;28;45449;-53
2022/10/08 00:26:41;;;;;;;;;22.75;20.75;;;;;16.07;43.00;101578.59;4961524;28;45494;-55
2022/10/08 00:29:08;;;;;;;;;23.00;17.75;;;;;16.04;42.79;101582.19;4961239;28;46220;-54
2022/10/08 00:31:39;;;;;;;;;18.50;16.25;;;;;16.03;42.97;101582.22;4976526;28;45319;-56
2022/10/08 00:34:08;;;;;;;;;16.50;15.25;;;;;15.99;43.24;101581.44;4961286;28;45817;-55
2022/10/08 00:36:36;;;;;;;;;17.75;16.75;;;;;15.97;43.24;101577.94;4961027;28;45267;-54
2022/10/08 00:39:05;;;;;;;;;18.75;17.50;;;;;15.92;42.91;101586.00;4961022;28;46369;-54
2022/10/08 00:41:34;;;;;;;;;17.50;15.00;;;;;15.92;43.12;101590.41;4961336;28;45397;-55
2022/10/08 00:44:02;;;;;;;;;15.25;14.25;;;;;15.92;43.12;101590.41;4961112;28;45313;-55
2022/10/08 00:46:30;;;;;;;;;20.25;17.00;;;;;15.88;43.00;101594.06;4961283;28;45389;-56
2022/10/08 00:49:09;;;;;;;;;19.00;16.00;;;;;15.86;43.47;101587.91;4960889;28;45629;-55
2022/10/08 00:51:34;;;;;;;;;16.75;16.75;;;;;15.84;43.14;101587.94;4961100;28;45322;-55
2022/10/08 00:54:03;;;;;;;;;19.25;14.75;;;;;15.81;43.33;101592.41;4961331;28;45359;-55
2022/10/08 00:56:33;;;;;;;;;22.00;18.25;;;;;15.82;43.20;101594.19;4961230;28;45449;-53
2022/10/08 00:58:59;;;;;;;;;17.50;14.00;;;;;15.77;43.01;101591.59;4960384;28;45366;-54
2022/10/08 01:01:24;;;;;;;;;14.00;14.00;;;;;15.77;43.07;101599.56;4960946;28;45300;-55
2022/10/08 01:03:49;;;;;;;;;15.75;13.25;;;;;15.75;43.38;101593.44;4961216;28;45310;-54
2022/10/08 01:06:30;;;;;;;;;20.25;16.75;;;;;15.73;43.70;101595.25;4960793;28;45242;-55
2022/10/08 01:09:12;;;;;;;;;17.50;13.50;;;;;15.71;43.21;101594.38;4961028;28;45307;-54
2022/10/08 01:12:01;;;;;;;;;17.00;16.75;;;;;15.66;43.46;101590.97;4960761;28;45460;-54
2022/10/08 01:14:46;;;;;;;;;20.75;19.50;;;;;15.63;43.71;101586.59;4960763;28;45265;-55
2022/10/08 01:17:26;;;;;;;;;12.75;11.75;;;;;15.60;43.85;101586.69;4960877;28;45433;-54
2022/10/08 01:20:11;;;;;;;;;16.25;12.00;;;;;15.56;43.59;101592.97;4960480;28;46844;-54
2022/10/08 01:22:43;;;;;;;;;16.75;14.75;;;;;15.53;43.67;101591.22;4960584;28;45413;-53
2022/10/08 01:25:32;;;;;;;;;14.25;13.75;;;;;15.50;43.96;101591.31;4960816;28;45511;-55
2022/10/08 01:28:02;;;;;;;;;15.00;14.75;;;;;15.47;43.74;101585.19;4960578;28;45308;-54
2022/10/08 01:30:29;;;;;;;;;13.00;12.25;;;;;15.44;43.83;101587.03;4960653;28;47120;-54
2022/10/08 01:33:11;;;;;;;;;12.75;12.50;;;;;15.42;43.67;101580.00;4960306;28;45411;-54
2022/10/08 01:35:42;;;;;;;;;16.25;12.75;;;;;15.40;43.82;101581.81;4960488;28;45452;-54
2022/10/08 01:38:12;;;;;;;;;14.00;11.25;;;;;15.37;44.21;101581.88;4960722;28;45461;-55
2022/10/08 01:40:40;;;;;;;;;13.50;12.00;;;;;15.36;44.25;101582.81;4960352;28;46445;-54
2022/10/08 01:43:09;;;;;;;;;18.50;13.75;;;;;15.34;43.81;101590.75;4960476;28;45338;-51
2022/10/08 01:45:40;;;;;;;;;12.50;11.00;;;;;15.33;43.85;101582.84;4960446;28;45326;-55
2022/10/08 01:48:13;;;;;;;;;16.00;12.75;;;;;15.31;44.18;101584.63;4960272;28;45362;-54
2022/10/08 01:50:50;;;;;;;;;18.75;13.00;;;;;15.28;44.16;101578.53;4960260;28;46343;-55
2022/10/08 01:53:18;;;;;;;;;11.25;10.25;;;;;15.27;44.47;101586.50;4960355;28;45184;-52
2022/10/08 01:55:49;;;;;;;;;10.75;9.25;;;;;15.25;44.49;101578.56;4960641;28;45230;-55
2022/10/08 01:58:19;;;;;;;;;13.00;11.50;;;;;15.25;44.59;101581.22;4960085;28;45396;-56
2022/10/08 02:00:47;;;;;;;;;11.00;9.75;;;;;15.24;44.31;101581.25;4960337;28;45236;-55
2022/10/08 02:03:14;;;;;;;;;10.25;10.25;;;;;15.22;44.44;101578.66;4960129;28;45381;-54
2022/10/08 02:05:47;;;;;;;;;10.00;9.00;;;;;15.21;44.34;101583.97;4960250;28;45447;-53
2022/10/08 02:08:13;;;;;;;;;14.25;12.00;;;;;15.13;44.56;101568.22;4960414;28;45546;-54
2022/10/08 02:10:39;;;;;;;;;13.00;11.75;;;;;15.18;44.60;101571.69;4960365;28;45431;-55
2022/10/08 02:13:05;;;;;;;;;10.25;9.00;;;;;15.16;44.57;101578.78;4963339;28;45339;-55
2022/10/08 02:15:58;;;;;;;;;14.00;10.75;;;;;15.15;44.39;101569.06;4962449;28;45260;-55
2022/10/08 02:19:03;;;;;;;;;11.25;10.25;;;;;15.13;44.52;101577.94;4963488;28;45315;-52
2022/10/08 02:21:29;;;;;;;;;13.00;11.00;;;;;15.10;44.71;101579.75;4930327;28;46266;-54
2022/10/08 02:24:06;;;;;;;;;14.25;12.50;;;;;15.08;44.66;101583.31;4963310;28;45330;-54
2022/10/08 02:26:39;;;;;;;;;14.00;8.50;;;;;15.06;45.05;101580.72;4963460;28;45502;-54
2022/10/08 02:29:12;;;;;;;;;11.00;11.00;;;;;15.04;44.85;101573.72;4963111;28;45446;-54
2022/10/08 02:32:05;;;;;;;;;10.00;9.25;;;;;15.00;44.54;101583.47;4963393;28;46479;-55
2022/10/08 02:34:40;;;;;;;;;12.25;10.25;;;;;14.98;44.63;101577.38;4963210;28;45528;-55
2022/10/08 02:37:05;;;;;;;;;10.50;10.50;;;;;14.96;45.15;101581.81;4958296;28;45413;-56
2022/10/08 02:39:35;;;;;;;;;14.00;11.00;;;;;14.94;44.65;101583.59;4963112;28;45334;-54
2022/10/08 02:42:05;;;;;;;;;9.25;9.00;;;;;14.92;45.21;101577.47;4963134;28;45413;-55
2022/10/08 02:44:38;;;;;;;;;12.00;9.25;;;;;14.90;44.65;101573.97;4963192;28;45409;-54
2022/10/08 02:47:09;;;;;;;;;11.75;9.50;;;;;14.87;45.16;101577.56;4962992;28;45453;-55
2022/10/08 02:49:38;;;;;;;;;11.00;11.00;;;;;14.86;45.03;101577.59;4962956;28;45337;-56
2022/10/08 02:52:07;;;;;;;;;12.00;8.75;;;;;14.83;45.31;101573.22;4962788;28;46196;-52
2022/10/08 02:54:37;;;;;;;;;9.75;8.75;;;;;14.83;45.13;101577.63;4963176;28;45532;-55
2022/10/08 02:57:19;;;;;;;;;10.75;8.50;;;;;14.80;45.11;101567.97;4963010;28;45183;-54
2022/10/08 02:59:45;;;;;;;;;8.00;8.00;;;;;14.79;45.19;101569.78;4963308;28;45390;-53
2022/10/08 03:02:18;;;;;;;;;10.75;9.00;;;;;14.77;45.32;101568.91;4962827;28;45275;-54
2022/10/08 03:04:58;;;;;;;;;6.25;6.25;;;;;14.75;45.55;101568.09;4962464;28;45295;-55
2022/10/08 03:07:29;;;;;;;;;9.25;8.25;;;;;14.76;45.08;101566.31;4962872;28;45505;-54
2022/10/08 03:09:57;;;;;;;;;7.25;5.75;;;;;14.75;45.57;101577.78;4962683;28;45310;-54
2022/10/08 03:12:24;;;;;;;;;10.25;9.00;;;;;14.74;45.67;101576.91;4962455;28;45404;-55
2022/10/08 03:14:51;;;;;;;;;9.25;9.25;;;;;14.73;45.16;101583.09;4962580;28;45393;-54
2022/10/08 03:17:23;;;;;;;;;8.50;7.25;;;;;14.73;45.49;101574.28;4962762;28;45331;-55
2022/10/08 03:19:49;;;;;;;;;14.50;10.75;;;;;14.71;45.77;101582.25;4962434;28;45282;-54
2022/10/08 03:22:15;;;;;;;;;10.00;7.75;;;;;14.70;45.54;101579.63;4960500;28;45338;-55
2022/10/08 03:24:40;;;;;;;;;13.00;9.00;;;;;14.69;45.37;101584.06;4962200;28;45194;-54
2022/10/08 03:27:05;;;;;;;;;8.50;7.75;;;;;14.68;45.44;101584.97;4962577;28;45293;-55
2022/10/08 03:29:31;;;;;;;;;12.75;8.75;;;;;14.67;45.36;101591.16;4962254;28;45384;-54
2022/10/08 03:31:56;;;;;;;;;8.75;8.75;;;;;14.66;45.45;101592.03;4962366;28;46797;-55
2022/10/08 03:34:24;;;;;;;;;8.50;7.75;;;;;14.65;45.85;101592.09;4962110;28;45329;-56
2022/10/08 03:36:49;;;;;;;;;11.25;9.00;;;;;14.62;45.48;101592.97;4962442;28;45287;-54
2022/10/08 03:39:14;;;;;;;;;9.00;8.25;;;;;14.60;46.14;101589.47;4962104;28;45306;-55
2022/10/08 03:41:40;;;;;;;;;4.00;3.00;;;;;14.59;45.93;101595.66;4960893;28;47262;-55
2022/10/08 03:44:09;;;;;;;;;11.25;7.50;;;;;14.57;45.79;101600.13;4962072;28;45318;-55
2022/10/08 03:46:35;;;;;;;;;10.00;8.25;;;;;14.56;46.02;101604.53;4962457;28;45284;-54
2022/10/08 03:49:00;;;;;;;;;8.25;7.25;;;;;14.55;46.07;101605.44;4960577;28;45449;-55
2022/10/08 03:51:26;;;;;;;;;10.75;9.00;;;;;14.47;45.93;101597.63;4962143;28;46311;-55
2022/10/08 03:53:51;;;;;;;;;10.50;7.75;;;;;14.53;45.86;101607.22;4962211;28;45339;-55
2022/10/08 03:56:24;;;;;;;;;9.50;7.75;;;;;14.54;46.25;101605.44;4962368;28;45262;-55
2022/10/08 03:58:57;;;;;;;;;9.00;6.50;;;;;14.52;45.92;101610.78;4961754;28;45577;-55
2022/10/08 04:01:23;;;;;;;;;11.00;9.00;;;;;14.53;45.98;101606.38;4962141;28;45204;-55
2022/10/08 04:03:48;;;;;;;;;8.75;7.25;;;;;14.52;46.39;101609.91;4961702;28;45429;-55
2022/10/08 04:06:14;;;;;;;;;5.50;5.50;;;;;14.51;46.43;101619.59;4961682;28;45526;-55
2022/10/08 04:08:40;;;;;;;;;8.75;7.00;;;;;14.49;46.53;101610.84;4962009;28;45271;-53
2022/10/08 04:11:08;;;;;;;;;60.00;44.25;;;;;14.49;46.10;101624.06;4961644;28;46621;-54
2022/10/08 04:13:35;;;;;;;;;21.75;19.25;;;;;14.48;46.26;101619.66;4961658;28;45421;-54
2022/10/08 04:16:06;;;;;;;;;9.50;6.75;;;;;14.45;46.65;101617.06;4961834;28;45399;-56
2022/10/08 04:18:32;;;;;;;;;8.75;7.50;;;;;14.46;46.57;101618.81;4961630;28;45998;-55
2022/10/08 04:21:06;;;;;;;;;6.00;4.50;;;;;14.43;46.58;101621.50;4961629;28;46106;-55
2022/10/08 04:23:35;;;;;;;;;6.50;5.25;;;;;14.44;46.63;101625.91;4961843;28;46008;-55
2022/10/08 04:26:01;;;;;;;;;7.50;7.00;;;;;14.34;46.44;101613.72;4960516;28;45358;-55
2022/10/08 04:28:26;;;;;;;;;7.00;7.00;;;;;14.42;46.62;101632.97;4961434;28;45291;-54
2022/10/08 04:30:56;;;;;;;;;7.25;7.25;;;;;14.43;46.34;101629.44;4961415;28;45326;-54
2022/10/08 04:33:22;;;;;;;;;6.75;6.50;;;;;14.39;46.43;101633.91;4961520;28;45481;-55
2022/10/08 04:35:48;;;;;;;;;6.00;5.50;;;;;14.43;46.71;101648.81;4961212;28;45461;-55
2022/10/08 04:38:13;;;;;;;;;4.50;2.00;;;;;14.42;46.32;101643.56;4961607;28;45308;-55
2022/10/08 04:40:39;;;;;;;;;8.00;7.50;;;;;14.41;46.71;101647.09;4961303;28;46211;-55
2022/10/08 04:43:04;;;;;;;;;6.50;6.00;;;;;14.41;46.81;101641.81;4959981;28;45398;-54
2022/10/08 04:45:29;;;;;;;;;6.00;5.25;;;;;14.42;46.87;101648.84;4960037;28;45730;-55
2022/10/08 04:47:55;;;;;;;;;4.50;3.00;;;;;14.39;46.92;101649.78;4961136;28;45486;-54
2022/10/08 04:50:20;;;;;;;;;10.00;8.00;;;;;14.42;46.63;101662.06;4961120;28;45459;-55
2022/10/08 04:52:45;;;;;;;;;7.00;7.00;;;;;14.42;46.99;101664.72;4960251;28;45376;-56
2022/10/08 04:55:10;;;;;;;;;7.25;7.25;;;;;14.40;46.68;101661.22;4961181;28;45289;-55
2022/10/08 04:57:36;;;;;;;;;9.25;8.00;;;;;14.39;46.87;101665.63;4959943;28;45188;-54
2022/10/08 05:00:03;;;;;;;;;9.00;6.75;;;;;14.41;47.15;101669.09;4961218;28;46127;-55
2022/10/08 05:02:29;;;;;;;;;8.25;8.25;;;;;14.39;47.33;101665.63;4961239;28;45317;-55
2022/10/08 05:04:54;;;;;;;;;7.25;6.00;;;;;14.40;46.85;101670.03;4961054;28;45244;-55
2022/10/08 05:07:19;;;;;;;;;9.00;7.25;;;;;14.40;47.20;101671.78;4960774;28;45243;-53
2022/10/08 05:09:45;;;;;;;;;7.00;7.00;;;;;14.40;47.25;101666.50;4961015;28;46294;-55
2022/10/08 05:12:10;;;;;;;;;6.25;6.25;;;;;14.40;47.26;101670.03;4961072;28;45224;-54
2022/10/08 05:14:35;;;;;;;;;1.50;0.50;;;;;14.40;47.12;101669.13;4961129;28;45255;-54
2022/10/08 05:17:01;;;;;;;;;7.50;5.75;;;;;14.39;47.39;101660.34;4960838;28;45389;-55
2022/10/08 05:19:26;;;;;;;;;5.00;5.00;;;;;14.39;46.89;101670.03;4960369;28;45459;-55
2022/10/08 05:21:51;;;;;;;;;6.75;6.75;;;;;14.39;47.32;101676.22;4960930;28;45255;-55
2022/10/08 05:24:16;;;;;;;;;8.00;6.00;;;;;14.39;47.51;101677.97;4961027;28;45238;-54
2022/10/08 05:26:42;;;;;;;;;7.50;6.75;;;;;14.38;47.40;101681.53;4960784;28;45596;-53
2022/10/08 05:29:09;;;;;;;;;3.25;3.25;;;;;14.39;47.38;101675.31;4960616;28;46135;-55
2022/10/08 05:31:36;;;;;;;;;11.25;7.50;;;;;14.38;47.26;101689.47;4960807;28;45324;-54
2022/10/08 05:34:01;;;;;;;;;6.00;6.00;;;;;14.37;47.45;101682.44;4960444;28;45407;-53
2022/10/08 05:36:29;;;;;;;;;9.25;6.00;;;;;14.33;47.70;101684.22;4960438;28;45440;-51
2022/10/08 05:38:55;;;;;;;;;13.25;8.00;;;;;14.33;47.26;101684.22;4960473;28;46398;-55
2022/10/08 05:41:25;;;;;;;;;6.25;6.25;;;;;14.35;47.38;101690.38;4960558;28;45303;-53
2022/10/08 05:43:52;;;;;;;;;6.00;5.75;;;;;14.34;47.45;101687.75;4960581;28;45316;-55
2022/10/08 05:46:18;;;;;;;;;10.00;8.75;;;;;14.32;47.60;101689.56;4961532;28;45425;-52
2022/10/08 05:48:44;;;;;;;;;6.00;5.25;;;;;14.33;47.67;101696.59;4963507;28;46190;-53
2022/10/08 05:51:16;;;;;;;;;8.25;5.00;;;;;14.33;47.70;101696.59;4963995;28;45195;-53
2022/10/08 05:53:46;;;;;;;;;9.50;8.50;;;;;14.32;47.46;101700.13;4963911;28;45275;-55
2022/10/08 05:56:14;;;;;;;;;11.75;10.25;;;;;14.32;47.53;101700.13;4963786;28;45529;-54
2022/10/08 05:58:41;;;;;;;;;6.00;6.00;;;;;14.21;47.66;101682.63;4963534;28;46241;-53
2022/10/08 06:01:11;;;;;;;;;8.00;6.25;;;;;14.30;47.50;101703.66;4975485;28;45252;-54
2022/10/08 06:03:37;;;;;;;;;12.50;6.75;;;;;14.29;47.71;101703.69;4963910;28;45480;-53
2022/10/08 06:06:05;;;;;;;;;10.00;6.75;;;;;14.30;47.55;101710.69;4963609;28;45408;-54
2022/10/08 06:08:31;;;;;;;;;8.75;8.00;;;;;14.26;47.99;101701.06;4963752;28;45317;-54
2022/10/08 06:10:56;;;;;;;;;7.00;7.00;;;;;14.25;47.55;101700.22;4963609;28;45359;-54
2022/10/08 06:13:22;;;;;;;;;10.75;9.25;;;;;14.28;47.66;101709.88;4963760;28;45333;-52
2022/10/08 06:15:59;;;;;;;;;10.50;8.00;;;;;14.26;47.84;101712.53;4963805;28;45263;-52
2022/10/08 06:18:27;;;;;;;;;11.00;9.75;;;;;14.28;47.78;101707.22;4963231;28;45251;-54
2022/10/08 06:20:53;;;;;;;;;10.50;9.75;;;;;14.27;48.00;101714.25;4963454;28;45357;-54
2022/10/08 06:23:19;;;;;;;;;9.00;7.50;;;;;14.27;47.94;101718.69;4963699;28;45469;-53
2022/10/08 06:25:44;;;;;;;;;11.50;10.75;;;;;14.26;48.25;101717.84;4961930;28;45412;-55
2022/10/08 06:28:10;;;;;;;;;11.50;10.25;;;;;14.26;47.92;101725.75;4963270;28;45371;-53
2022/10/08 06:30:39;;;;;;;;;8.00;8.00;;;;;14.25;48.00;101731.94;4963097;28;45319;-54
2022/10/08 06:33:04;;;;;;;;;7.25;4.25;;;;;14.23;47.84;101730.22;4963332;28;45245;-54
2022/10/08 06:35:29;;;;;;;;;8.75;7.25;;;;;14.26;47.97;101733.69;4961737;28;45220;-54
2022/10/08 06:37:55;;;;;;;;;10.00;9.00;;;;;14.26;48.21;101741.63;4962554;28;45351;-54
2022/10/08 06:40:20;;;;;;;;;8.50;7.25;;;;;14.19;48.39;101732.03;4963077;28;45188;-54
2022/10/08 06:42:46;;;;;;;;;8.25;6.25;;;;;14.25;48.17;101749.56;4963461;28;45437;-53
2022/10/08 06:45:11;;;;;;;;;9.25;8.00;;;;;14.24;48.34;101753.13;4963074;28;45381;-55
2022/10/08 06:47:36;;;;;;;;;8.00;8.00;;;;;14.26;48.50;101757.50;4962784;28;45454;-54
2022/10/08 06:50:02;;;;;;;;;8.50;6.75;;;;;14.26;48.23;101761.88;4963074;28;45355;-53
2022/10/08 06:52:27;;;;;;;;;12.00;10.00;;;;;14.28;48.56;101771.53;4963272;28;45314;-54
2022/10/08 06:54:53;;;;;;;;;9.50;9.00;;;;;14.28;48.13;101763.59;4962908;28;45258;-54
2022/10/08 06:57:18;;;;;;;;;8.50;7.25;;;;;14.29;48.70;101762.72;4976808;28;47163;-53
2022/10/08 06:59:43;;;;;;;;;12.00;8.00;;;;;14.29;48.57;101770.66;4962681;28;45258;-53
2022/10/08 07:02:09;;;;;;;;;11.00;8.50;;;;;14.33;48.41;101775.91;4962920;28;45327;-53
2022/10/08 07:04:35;;;;;;;;;10.25;8.25;;;;;14.32;48.75;101771.50;4962669;28;45328;-54
2022/10/08 07:07:00;;;;;;;;;11.25;10.50;;;;;14.34;48.77;101773.25;4961403;28;45278;-54
2022/10/08 07:09:25;;;;;;;;;10.75;9.25;;;;;14.36;48.81;101776.72;4962717;28;45298;-54
2022/10/08 07:11:51;;;;;;;;;8.50;8.50;;;;;14.38;49.00;101772.28;4962727;28;45261;-53
2022/10/08 07:14:16;;;;;;;;;9.25;7.50;;;;;14.39;48.39;101781.97;4962575;28;45528;-56
2022/10/08 07:16:41;;;;;;;;;10.75;10.00;;;;;14.42;48.60;101789.00;4962372;28;46218;-56
2022/10/08 07:19:07;;;;;;;;;12.50;9.75;;;;;14.43;48.62;101788.09;4962445;28;45273;-54
2022/10/08 07:21:32;;;;;;;;;12.50;10.25;;;;;14.46;48.93;101796.00;4962622;28;45223;-53
2022/10/08 07:24:00;;;;;;;;;10.50;9.75;;;;;14.46;48.94;101794.22;4962638;28;45172;-55
2022/10/08 07:26:28;;;;;;;;;10.50;7.75;;;;;14.50;48.74;101804.75;4962265;28;46168;-57
2022/10/08 07:28:56;;;;;;;;;9.75;7.50;;;;;14.53;49.23;101810.03;4962164;28;45930;-55
2022/10/08 07:31:26;;;;;;;;;15.25;11.50;;;;;14.54;48.88;101807.34;4962571;28;45247;-54
2022/10/08 07:33:52;;;;;;;;;11.50;10.00;;;;;14.57;48.97;101809.06;4961938;28;46495;-55
2022/10/08 07:36:20;;;;;;;;;11.50;8.75;;;;;14.62;48.82;101812.53;4961964;28;46337;-53
2022/10/08 07:38:46;;;;;;;;;9.75;8.50;;;;;14.65;49.53;101822.22;4962112;28;45451;-53
2022/10/08 07:41:13;;;;;;;;;10.75;10.50;;;;;14.67;49.10;101812.50;4962412;28;45257;-56
2022/10/08 07:43:42;;;;;;;;;14.00;10.00;;;;;14.71;49.24;101824.78;4960784;28;45404;-56
2022/10/08 07:46:09;;;;;;;;;8.25;4.50;;;;;14.75;49.17;101834.41;4960917;28;47183;-56
2022/10/08 07:48:37;;;;;;;;;8.75;6.50;;;;;14.79;49.27;101830.81;4961620;28;45468;-56
2022/10/08 07:51:11;;;;;;;;;8.75;7.25;;;;;14.84;49.74;101844.00;4977190;28;45260;-55
2022/10/08 07:53:37;;;;;;;;;6.50;5.00;;;;;14.87;49.76;101839.53;4961949;28;45447;-56
2022/10/08 07:56:04;;;;;;;;;9.75;6.00;;;;;14.92;49.93;101840.34;4962052;28;45257;-56
2022/10/08 07:58:30;;;;;;;;;3.50;3.00;;;;;14.97;49.55;101835.00;4960425;28;45296;-56
2022/10/08 08:00:56;;;;;;;;;5.00;5.00;;;;;15.03;50.12;101836.66;4962702;28;45337;-56
2022/10/08 08:03:22;;;;;;;;;3.00;2.25;;;;;15.08;49.72;101842.75;4961732;28;45447;-57
2022/10/08 08:05:48;;;;;;;;;8.75;6.00;;;;;15.13;49.87;101840.91;4961612;28;45496;-54
2022/10/08 08:08:13;;;;;;;;;7.75;6.25;;;;;15.18;49.71;101849.66;4961568;28;45337;-55
2022/10/08 08:10:39;;;;;;;;;4.00;4.00;;;;;15.26;49.86;101850.41;4961875;28;45319;-56
2022/10/08 08:13:04;;;;;;;;;6.25;6.00;;;;;15.32;50.23;101848.56;4961616;28;45559;-55
2022/10/08 08:15:29;;;;;;;;;10.75;7.00;;;;;15.38;49.89;101853.75;4961508;28;46537;-55
2022/10/08 08:17:55;;;;;;;;;4.50;4.25;;;;;15.45;49.96;101858.06;4961487;28;45793;-55
2022/10/08 08:20:20;;;;;;;;;8.00;5.75;;;;;15.51;50.18;101859.72;4961967;28;45287;-55
2022/10/08 08:22:45;;;;;;;;;15.25;12.50;;;;;15.56;50.02;101861.41;4961583;28;45532;-56
2022/10/08 08:25:11;;;;;;;;;4.00;3.00;;;;;15.65;50.20;101867.44;4961572;28;46085;-55
2022/10/08 08:27:36;;;;;;;;;7.25;6.00;;;;;15.71;50.51;101870.84;4961614;28;45331;-55
2022/10/08 08:30:01;;;;;;;;;7.50;5.25;;;;;15.80;50.27;101875.13;4961926;28;45164;-55
2022/10/08 08:32:27;;;;;;;;;4.00;2.75;;;;;15.86;50.40;101877.69;4959904;28;45808;-55
2022/10/08 08:34:52;;;;;;;;;8.00;5.00;;;;;15.92;50.41;101877.59;4961527;28;45239;-56
2022/10/08 08:37:18;;;;;;;;;6.25;5.75;;;;;16.01;50.13;101878.28;4961262;28;45156;-56
2022/10/08 08:39:43;;;;;;;;;7.25;4.50;;;;;16.11;50.71;101886.94;4961719;28;45215;-56
2022/10/08 08:42:46;;;;;;;;;10.25;4.50;;;;;16.20;50.38;101879.69;4961232;28;45608;-54
2022/10/08 08:45:28;;;;;;;;;6.00;4.50;;;;;16.28;50.14;101892.81;4961140;28;47526;-55
2022/10/08 08:48:12;;;;;;;;;7.50;5.00;;;;;16.39;50.47;101892.59;4976104;28;45367;-56
2022/10/08 08:50:41;;;;;;;;;8.25;4.00;;;;;16.48;50.46;101903.00;4961387;28;45261;-56
2022/10/08 08:53:09;;;;;;;;;8.50;6.00;;;;;16.57;50.51;101901.94;4961201;28;45269;-55
2022/10/08 08:55:39;;;;;;;;;5.50;4.75;;;;;16.67;50.40;101903.50;4961218;28;45354;-56
2022/10/08 08:58:13;;;;;;;;;3.25;2.00;;;;;16.78;50.54;101907.69;4960975;28;45373;-56
2022/10/08 09:00:43;;;;;;;;;5.75;3.00;;;;;16.86;50.54;101909.28;4969311;28;45397;-56
2022/10/08 09:03:25;;;;;;;;;5.50;3.00;;;;;16.95;50.26;101912.69;4980106;28;45319;-56
2022/10/08 09:05:56;;;;;;;;;2.00;2.00;;;;;17.06;50.24;101913.31;4960834;28;46287;-56
2022/10/08 09:08:29;;;;;;;;;4.50;3.50;;;;;17.15;50.06;101909.56;4961020;28;45466;-56
2022/10/08 09:11:01;;;;;;;;;5.50;3.75;;;;;17.27;50.33;101924.34;4959865;28;45469;-56
2022/10/08 09:13:36;;;;;;;;;2.00;2.00;;;;;17.37;50.18;101923.19;4960655;28;45452;-56
2022/10/08 09:16:01;;;;;;;;;4.75;3.00;;;;;17.46;49.91;101920.34;4960759;28;46033;-56
2022/10/08 09:18:27;;;;;;;;;4.25;2.25;;;;;17.56;49.96;101921.00;4959407;28;45958;-55
2022/10/08 09:20:52;;;;;;;;;5.75;3.00;;;;;17.64;49.83;101923.47;4959930;28;45320;-56
2022/10/08 09:23:21;;;;;;;;;3.75;3.00;;;;;17.75;49.76;101932.03;4960901;28;45236;-56
2022/10/08 09:26:19;;;;;;;;;10.25;5.50;;;;;17.87;49.56;101933.50;4960591;28;45421;-56
2022/10/08 09:28:53;;;;;;;;;3.75;2.75;;;;;17.97;49.73;101929.69;4956191;28;45501;-55
2022/10/08 09:31:35;;;;;;;;;2.00;1.75;;;;;18.09;49.42;101931.19;4960949;28;45342;-55
2022/10/08 09:34:09;;;;;;;;;4.75;3.00;;;;;18.20;49.20;101930.91;4960428;28;45343;-55
2022/10/08 09:36:45;;;;;;;;;7.50;5.50;;;;;18.31;49.28;101933.25;4960207;28;45445;-58
2022/10/08 09:39:18;;;;;;;;;6.50;3.25;;;;;18.40;49.45;101940.09;4960620;28;45425;-54
2022/10/08 09:41:45;;;;;;;;;4.00;3.00;;;;;18.49;49.24;101945.19;4960699;28;45294;-56
2022/10/08 09:44:18;;;;;;;;;7.50;6.00;;;;;18.61;48.95;101942.16;4960412;28;45228;-56
2022/10/08 09:46:44;;;;;;;;;3.50;3.00;;;;;18.71;48.71;101956.06;4960260;28;46315;-55
2022/10/08 09:49:30;;;;;;;;;6.00;4.00;;;;;18.84;49.10;101952.13;4960529;28;45726;-56
2022/10/08 09:52:03;;;;;;;;;6.25;4.00;;;;;18.92;48.81;101949.28;4960711;28;45437;-56
2022/10/08 09:54:35;;;;;;;;;7.00;3.00;;;;;18.97;48.74;101943.81;4960625;28;45246;-54
2022/10/08 09:57:01;;;;;;;;;3.75;3.50;;;;;19.10;48.49;101947.81;4960446;28;46702;-54
2022/10/08 09:59:39;;;;;;;;;5.25;4.00;;;;;19.17;48.20;101941.41;4960211;28;45303;-53
2022/10/08 10:02:20;;;;;;;;;5.75;3.50;;;;;19.29;47.93;101948.13;4959875;28;45346;-53
2022/10/08 10:04:47;;;;;;;;;5.00;4.00;;;;;19.41;47.89;101952.19;4960178;28;45593;-54
2022/10/08 10:07:12;;;;;;;;;3.25;2.00;;;;;19.51;48.32;101951.91;4959968;28;47129;-54
2022/10/08 10:09:46;;;;;;;;;2.00;2.00;;;;;19.62;48.21;101945.31;4960322;28;45231;-53
2022/10/08 10:12:26;;;;;;;;;5.50;2.25;;;;;19.73;47.96;101947.59;4960620;28;45253;-55
2022/10/08 10:15:03;;;;;;;;;2.50;2.50;;;;;19.83;47.55;101950.00;4960137;28;45765;-54
2022/10/08 10:17:41;;;;;;;;;3.00;3.00;;;;;19.91;48.14;101946.16;4959834;28;45369;-54
2022/10/08 10:20:25;;;;;;;;;4.00;3.00;;;;;20.03;47.95;101944.84;4960274;28;45430;-53
2022/10/08 10:23:19;;;;;;;;;6.00;3.50;;;;;20.16;47.71;101947.94;4960116;28;45270;-54
2022/10/08 10:25:49;;;;;;;;;5.75;2.50;;;;;20.25;47.80;101944.97;4956250;28;45395;-55
2022/10/08 10:28:43;;;;;;;;;8.50;5.00;;;;;20.38;47.48;101942.72;4959816;28;45188;-54
2022/10/08 10:31:32;;;;;;;;;3.25;1.00;;;;;20.52;47.36;101942.19;4960036;28;45269;-53
2022/10/08 10:34:27;;;;;;;;;4.25;3.00;;;;;20.63;47.17;101945.34;4963073;28;45342;-54
2022/10/08 10:36:57;;;;;;;;;3.00;3.00;;;;;20.72;46.83;101954.84;4962954;28;45452;-57
2022/10/08 10:39:32;;;;;;;;;5.00;2.25;;;;;20.80;47.05;101954.53;4963029;28;46596;-55
2022/10/08 10:42:09;;;;;;;;;8.25;8.25;;;;;20.87;46.74;101947.19;4961715;28;45252;-56
2022/10/08 10:44:48;;;;;;;;;4.75;2.25;;;;;20.91;46.24;101946.13;4963363;28;45459;-56
2022/10/08 10:47:16;;;;;;;;;3.50;2.00;;;;;20.95;46.78;101947.75;4962655;28;45333;-55
2022/10/08 10:49:42;;;;;;;;;3.25;2.25;;;;;21.03;46.68;101959.00;4962930;28;45239;-56
2022/10/08 10:52:35;;;;;;;;;4.00;2.75;;;;;21.07;46.34;101960.63;4962792;28;45290;-55
2022/10/08 10:55:04;;;;;;;;;2.75;2.75;;;;;21.14;46.00;101961.25;4962964;28;45335;-55
2022/10/08 10:57:54;;;;;;;;;5.75;5.25;;;;;21.20;46.07;101958.34;4962802;28;45253;-55
2022/10/08 11:00:25;;;;;;;;;2.00;1.00;;;;;21.29;45.77;101964.25;4963179;28;46361;-55
2022/10/08 11:02:53;;;;;;;;;3.25;3.25;;;;;21.40;45.46;101970.03;4961346;28;45282;-55
2022/10/08 11:05:25;;;;;;;;;4.75;2.25;;;;;21.47;45.99;101963.53;4962283;28;45379;-56
2022/10/08 11:08:12;;;;;;;;;3.25;2.25;;;;;21.56;45.85;101960.50;4962661;28;45414;-56
2022/10/08 11:10:57;;;;;;;;;7.00;3.50;;;;;21.69;45.68;101960.84;4962680;28;45354;-56
2022/10/08 11:13:31;;;;;;;;;2.00;2.00;;;;;21.82;45.36;101961.19;4962465;28;45407;-55
2022/10/08 11:16:08;;;;;;;;;1.00;1.00;;;;;21.96;44.83;101960.63;4962611;28;45419;-56
2022/10/08 11:18:50;;;;;;;;;2.00;2.00;;;;;22.12;45.08;101954.59;4962414;28;45464;-56
2022/10/08 11:21:34;;;;;;;;;2.25;1.00;;;;;22.33;44.87;101964.34;4961285;28;46736;-57
2022/10/08 11:24:08;;;;;;;;;4.50;4.00;;;;;22.53;45.05;101954.59;4962615;28;45265;-56
2022/10/08 11:26:43;;;;;;;;;1.50;1.50;;;;;22.75;44.94;101962.50;4962753;28;45251;-55
2022/10/08 11:29:33;;;;;;;;;19.50;19.50;;;;;23.00;44.77;101956.84;4960733;28;45761;-54
2022/10/08 11:32:00;;;;;;;;;81.00;74.33;;;;;23.24;44.83;101955.78;4961867;28;46252;-55
2022/10/08 11:34:33;;;;;;;;;2.00;1.00;;;;;23.49;44.83;101953.63;4962188;28;45276;-55